createdAt,value
2023-12-14T00:02:03.734Z,100.00
2023-12-14T00:04:30.808Z,100.00
2023-12-14T00:06:57.866Z,100.00
2023-12-14T00:09:24.864Z,100.00
2023-12-14T00:11:51.784Z,100.00
2023-12-14T00:14:18.780Z,100.00
2023-12-14T00:16:45.846Z,100.00
2023-12-14T00:19:12.806Z,100.00
2023-12-14T00:21:39.820Z,100.00
2023-12-14T00:24:07.856Z,100.00
2023-12-14T00:26:34.820Z,100.00
2023-12-14T00:29:02.565Z,100.00
2023-12-14T00:31:29.956Z,100.00
2023-12-14T00:33:56.962Z,100.00
2023-12-14T00:36:23.885Z,100.00
2023-12-14T00:38:50.941Z,100.00
2023-12-14T00:41:17.995Z,100.00
2023-12-14T00:43:45.018Z,100.00
2023-12-14T00:46:12.703Z,100.00
2023-12-14T00:48:39.835Z,100.00
2023-12-14T00:51:07.125Z,100.00
2023-12-14T00:53:34.227Z,100.00
2023-12-14T00:56:01.178Z,100.00
2023-12-14T00:58:28.511Z,100.00
2023-12-14T01:00:56.059Z,100.00
2023-12-14T01:03:23.256Z,100.00
2023-12-14T01:05:50.400Z,100.00
2023-12-14T01:08:17.412Z,100.00
2023-12-14T01:10:44.930Z,100.00
2023-12-14T01:13:11.971Z,100.00
2023-12-14T01:15:38.900Z,100.00
2023-12-14T01:18:05.984Z,100.00
2023-12-14T01:20:33.409Z,100.00
2023-12-14T01:23:00.505Z,100.00
2023-12-14T01:25:27.767Z,100.00
2023-12-14T01:27:54.815Z,100.00
2023-12-14T01:30:21.865Z,100.00
2023-12-14T01:32:48.989Z,100.00
2023-12-14T01:35:16.169Z,100.00
2023-12-14T01:37:43.172Z,100.00
2023-12-14T01:40:10.558Z,100.00
2023-12-14T01:42:37.703Z,100.00
2023-12-14T01:45:06.627Z,100.00
2023-12-14T01:47:33.691Z,100.00
2023-12-14T01:50:00.810Z,100.00
2023-12-14T01:52:27.839Z,100.00
2023-12-14T01:54:56.493Z,100.00
2023-12-14T01:57:23.415Z,100.00
2023-12-14T01:59:50.369Z,100.00
2023-12-14T02:02:17.489Z,100.00
2023-12-14T02:04:45.011Z,100.00
2023-12-14T02:07:12.305Z,100.00
2023-12-14T02:09:39.357Z,100.00
2023-12-14T02:12:06.723Z,100.00
2023-12-14T02:14:33.725Z,100.00
2023-12-14T02:17:00.928Z,100.00
2023-12-14T02:19:27.827Z,100.00
2023-12-14T02:21:54.822Z,100.00
2023-12-14T02:24:21.798Z,100.00
2023-12-14T02:27:02.067Z,100.00
2023-12-14T02:29:31.248Z,100.00
2023-12-14T02:31:58.444Z,100.00
2023-12-14T02:34:26.689Z,100.00
2023-12-14T02:36:54.216Z,100.00
2023-12-14T02:39:21.232Z,100.00
2023-12-14T02:41:48.274Z,100.00
2023-12-14T02:44:15.386Z,100.00
2023-12-14T02:46:42.552Z,100.00
2023-12-14T02:49:10.134Z,100.00
2023-12-14T02:51:37.395Z,100.00
2023-12-14T02:54:04.321Z,100.00
2023-12-14T02:56:31.252Z,100.00
2023-12-14T02:58:58.238Z,100.00
2023-12-14T03:01:25.435Z,100.00
2023-12-14T03:03:52.546Z,100.00
2023-12-14T03:06:19.573Z,100.00
2023-12-14T03:08:46.628Z,100.00
2023-12-14T03:11:23.296Z,100.00
2023-12-14T03:13:50.906Z,100.00
2023-12-14T03:16:20.800Z,100.00
2023-12-14T03:18:47.882Z,100.00
2023-12-14T03:21:14.791Z,100.00
2023-12-14T03:23:41.751Z,100.00
2023-12-14T03:26:08.841Z,100.00
2023-12-14T03:28:36.314Z,100.00
2023-12-14T03:31:03.484Z,100.00
2023-12-14T03:33:31.075Z,100.00
2023-12-14T03:35:58.263Z,100.00
2023-12-14T03:38:25.215Z,100.00
2023-12-14T03:40:52.136Z,100.00
2023-12-14T03:43:19.248Z,100.00
2023-12-14T03:45:46.198Z,100.00
2023-12-14T03:48:13.326Z,100.00
2023-12-14T03:50:40.262Z,100.00
2023-12-14T03:53:07.412Z,100.00
2023-12-14T03:55:34.903Z,100.00
2023-12-14T03:58:02.048Z,100.00
2023-12-14T04:00:29.007Z,100.00
2023-12-14T04:02:56.040Z,100.00
2023-12-14T04:05:23.209Z,100.00
2023-12-14T04:07:50.359Z,100.00
2023-12-14T04:10:17.384Z,100.00
2023-12-14T04:12:45.138Z,100.00
2023-12-14T04:15:12.252Z,100.00
2023-12-14T04:17:39.590Z,100.00
2023-12-14T04:20:07.937Z,100.00
2023-12-14T04:22:35.611Z,100.00
2023-12-14T04:25:02.662Z,100.00
2023-12-14T04:27:31.329Z,100.00
2023-12-14T04:29:58.577Z,100.00
2023-12-14T04:32:25.693Z,100.00
2023-12-14T04:34:52.783Z,100.00
2023-12-14T04:37:20.125Z,100.00
2023-12-14T04:39:47.091Z,100.00
2023-12-14T04:42:14.040Z,100.00
2023-12-14T04:44:40.992Z,100.00
2023-12-14T04:47:09.646Z,100.00
2023-12-14T04:49:37.370Z,100.00
2023-12-14T04:52:04.786Z,100.00
2023-12-14T04:54:31.793Z,100.00
2023-12-14T04:56:58.859Z,100.00
2023-12-14T04:59:25.947Z,100.00
2023-12-14T05:01:52.968Z,100.00
2023-12-14T05:04:19.992Z,100.00
2023-12-14T05:06:46.948Z,100.00
2023-12-14T05:09:14.058Z,100.00
2023-12-14T05:11:41.912Z,100.00
2023-12-14T05:14:09.161Z,100.00
2023-12-14T05:16:36.183Z,100.00
2023-12-14T05:19:03.161Z,100.00
2023-12-14T05:21:30.106Z,100.00
2023-12-14T05:23:57.165Z,100.00
2023-12-14T05:26:24.172Z,100.00
2023-12-14T05:28:51.167Z,100.00
2023-12-14T05:31:18.183Z,100.00
2023-12-14T05:33:45.391Z,100.00
2023-12-14T05:36:12.622Z,100.00
2023-12-14T05:38:40.360Z,100.00
2023-12-14T05:41:07.718Z,100.00
2023-12-14T05:43:34.780Z,100.00
2023-12-14T05:46:01.842Z,100.00
2023-12-14T05:48:29.693Z,100.00
2023-12-14T05:50:57.950Z,100.00
2023-12-14T05:53:24.942Z,100.00
2023-12-14T05:55:52.257Z,100.00
2023-12-14T05:58:19.870Z,100.00
2023-12-14T06:00:46.954Z,100.00
2023-12-14T06:03:13.879Z,100.00
2023-12-14T06:05:41.085Z,100.00
2023-12-14T06:08:08.456Z,100.00
2023-12-14T06:10:35.642Z,100.00
2023-12-14T06:13:02.893Z,100.00
2023-12-14T06:15:29.816Z,100.00
2023-12-14T06:17:56.889Z,100.00
2023-12-14T06:20:24.405Z,100.00
2023-12-14T06:22:51.530Z,100.00
2023-12-14T06:25:18.532Z,100.00
2023-12-14T06:27:46.198Z,100.00
2023-12-14T06:30:13.665Z,100.00
2023-12-14T06:32:41.275Z,100.00
2023-12-14T06:35:08.661Z,100.00
2023-12-14T06:37:35.717Z,100.00
2023-12-14T06:40:02.672Z,100.00
2023-12-14T06:42:29.691Z,100.00
2023-12-14T06:44:56.741Z,100.00
2023-12-14T06:47:23.717Z,100.00
2023-12-14T06:49:51.668Z,100.00
2023-12-14T06:52:18.731Z,100.00
2023-12-14T06:54:45.975Z,100.00
2023-12-14T06:57:13.404Z,100.00
2023-12-14T06:59:40.367Z,100.00
2023-12-14T07:02:08.215Z,100.00
2023-12-14T07:04:35.195Z,100.00
2023-12-14T07:07:02.674Z,100.00
2023-12-14T07:09:29.677Z,100.00
2023-12-14T07:11:56.926Z,100.00
2023-12-14T07:14:26.374Z,100.00
2023-12-14T07:16:53.569Z,100.00
2023-12-14T07:19:20.592Z,100.00
2023-12-14T07:21:47.955Z,100.00
2023-12-14T07:24:14.917Z,100.00
2023-12-14T07:26:41.868Z,100.00
2023-12-14T07:29:08.887Z,100.00
2023-12-14T07:31:35.890Z,100.00
2023-12-14T07:34:02.903Z,99.82
2023-12-14T07:36:29.846Z,100.00
2023-12-14T07:38:56.924Z,100.00
2023-12-14T07:41:27.850Z,100.00
2023-12-14T07:43:55.136Z,100.00
2023-12-14T07:46:22.488Z,100.00
2023-12-14T07:48:49.443Z,100.00
2023-12-14T07:51:16.453Z,100.00
2023-12-14T07:53:44.016Z,100.00
2023-12-14T07:56:11.136Z,100.00
2023-12-14T07:58:38.378Z,100.00
2023-12-14T08:01:05.813Z,100.00
2023-12-14T08:03:32.814Z,100.00
2023-12-14T08:05:59.853Z,100.00
2023-12-14T08:08:27.513Z,100.00
2023-12-14T08:10:54.546Z,99.79
2023-12-14T08:13:21.528Z,100.00
2023-12-14T08:15:48.607Z,100.00
2023-12-14T08:18:15.704Z,100.00
2023-12-14T08:20:42.957Z,100.00
2023-12-14T08:23:09.977Z,100.00
2023-12-14T08:25:37.073Z,100.00
2023-12-14T08:28:05.880Z,100.00
2023-12-14T08:30:33.152Z,100.00
2023-12-14T08:33:00.305Z,98.99
2023-12-14T08:35:27.462Z,96.90
2023-12-14T08:37:54.498Z,100.00
2023-12-14T08:40:21.614Z,100.00
2023-12-14T08:42:48.968Z,99.76
2023-12-14T08:45:16.070Z,99.98
2023-12-14T08:47:44.282Z,98.81
2023-12-14T08:50:12.485Z,100.00
2023-12-14T08:52:39.520Z,100.00
2023-12-14T08:55:07.226Z,100.00
2023-12-14T08:57:34.143Z,100.00
2023-12-14T09:00:01.111Z,99.66
2023-12-14T09:02:28.305Z,97.90
2023-12-14T09:04:55.492Z,95.75
2023-12-14T09:07:22.503Z,94.77
2023-12-14T09:09:49.519Z,96.49
2023-12-14T09:12:16.506Z,94.58
2023-12-14T09:14:43.481Z,97.44
2023-12-14T09:17:10.496Z,95.31
2023-12-14T09:19:37.589Z,92.94
2023-12-14T09:22:04.685Z,92.00
2023-12-14T09:24:31.632Z,94.73
2023-12-14T09:26:58.552Z,94.88
2023-12-14T09:29:25.555Z,95.32
2023-12-14T09:31:53.031Z,98.20
2023-12-14T09:34:20.182Z,96.82
2023-12-14T09:36:47.248Z,97.64
2023-12-14T09:39:15.028Z,95.11
2023-12-14T09:41:42.145Z,95.52
2023-12-14T09:44:09.217Z,95.75
2023-12-14T09:46:39.406Z,96.51
2023-12-14T09:49:08.917Z,93.04
2023-12-14T09:51:37.521Z,95.41
2023-12-14T09:54:04.683Z,91.78
2023-12-14T09:56:31.951Z,91.68
2023-12-14T09:58:59.722Z,90.13
2023-12-14T10:01:28.049Z,96.27
2023-12-14T10:04:13.352Z,93.24
2023-12-14T10:06:41.617Z,92.19
2023-12-14T10:09:14.759Z,94.00
2023-12-14T10:11:42.391Z,91.48
2023-12-14T10:14:23.831Z,94.03
2023-12-14T10:16:52.657Z,91.46
2023-12-14T10:19:21.244Z,91.99
2023-12-14T10:21:49.487Z,91.34
2023-12-14T10:24:20.420Z,89.65
2023-12-14T10:26:48.749Z,88.35
2023-12-14T10:29:16.629Z,88.39
2023-12-14T10:31:45.145Z,93.82
2023-12-14T10:34:14.336Z,87.20
2023-12-14T10:36:44.184Z,86.21
2023-12-14T10:39:14.995Z,90.07
2023-12-14T10:41:43.481Z,86.64
2023-12-14T10:44:22.070Z,92.94
2023-12-14T10:46:59.998Z,89.91
2023-12-14T10:49:28.077Z,88.49
2023-12-14T10:51:58.205Z,90.23
2023-12-14T10:54:26.532Z,88.29
2023-12-14T10:56:58.075Z,90.04
2023-12-14T10:59:25.923Z,85.54
2023-12-14T11:01:58.576Z,85.24
2023-12-14T11:04:28.617Z,78.99
2023-12-14T11:06:56.191Z,86.61
2023-12-14T11:09:26.049Z,82.04
2023-12-14T11:12:00.147Z,80.82
2023-12-14T11:14:28.339Z,80.47
2023-12-14T11:16:57.649Z,80.23
2023-12-14T11:19:24.643Z,75.73
2023-12-14T11:21:54.786Z,79.25
2023-12-14T11:24:22.026Z,79.31
2023-12-14T11:26:50.990Z,80.08
2023-12-14T11:29:23.301Z,79.36
2023-12-14T11:31:50.425Z,77.05
2023-12-14T11:34:18.468Z,80.82
2023-12-14T11:36:47.164Z,82.08
2023-12-14T11:39:14.251Z,84.10
2023-12-14T11:41:41.216Z,85.39
2023-12-14T11:44:08.396Z,88.31
2023-12-14T11:46:35.838Z,86.48
2023-12-14T11:49:05.096Z,85.75
2023-12-14T11:51:34.746Z,87.63
2023-12-14T11:54:03.638Z,88.21
2023-12-14T11:56:32.254Z,87.55
2023-12-14T11:58:59.512Z,87.27
2023-12-14T12:01:27.837Z,89.71
2023-12-14T12:03:55.500Z,89.57
2023-12-14T12:06:29.286Z,90.94
2023-12-14T12:08:56.518Z,90.29
2023-12-14T12:11:26.553Z,87.81
2023-12-14T12:13:58.490Z,89.69
2023-12-14T12:16:26.732Z,87.72
2023-12-14T12:18:54.412Z,88.32
2023-12-14T12:21:21.590Z,86.84
2023-12-14T12:23:48.595Z,91.96
2023-12-14T12:26:15.980Z,92.88
2023-12-14T12:28:42.959Z,91.09
2023-12-14T12:31:10.082Z,92.26
2023-12-14T12:33:39.656Z,93.96
2023-12-14T12:36:07.609Z,93.50
2023-12-14T12:38:34.925Z,94.57
2023-12-14T12:41:02.689Z,95.91
2023-12-14T12:43:30.300Z,95.83
2023-12-14T12:45:59.282Z,93.98
2023-12-14T12:48:27.863Z,91.96
2023-12-14T12:50:55.477Z,94.91
2023-12-14T12:53:22.600Z,93.86
2023-12-14T12:55:49.801Z,91.70
2023-12-14T12:58:16.898Z,89.70
2023-12-14T13:00:43.904Z,91.60
2023-12-14T13:03:12.146Z,87.19
2023-12-14T13:05:39.304Z,86.46
2023-12-14T13:08:06.860Z,85.24
2023-12-14T13:10:33.863Z,86.36
2023-12-14T13:13:01.013Z,88.68
2023-12-14T13:15:30.770Z,92.14
2023-12-14T13:17:58.774Z,89.99
2023-12-14T13:20:26.026Z,90.00
2023-12-14T13:22:54.478Z,92.37
2023-12-14T13:25:24.098Z,89.53
2023-12-14T13:27:51.223Z,88.23
2023-12-14T13:30:19.471Z,93.95
2023-12-14T13:32:47.145Z,94.26
2023-12-14T13:35:14.560Z,94.67
2023-12-14T13:37:42.751Z,94.56
2023-12-14T13:40:13.209Z,90.86
2023-12-14T13:42:46.879Z,89.99
2023-12-14T13:45:21.966Z,90.55
2023-12-14T13:47:49.122Z,91.32
2023-12-14T13:50:16.269Z,88.14
2023-12-14T13:52:44.503Z,93.65
2023-12-14T13:55:11.509Z,93.35
2023-12-14T13:57:38.633Z,93.49
2023-12-14T14:00:07.256Z,95.68
2023-12-14T14:02:34.606Z,94.17
2023-12-14T14:05:01.767Z,94.50
2023-12-14T14:07:28.748Z,95.52
2023-12-14T14:09:56.128Z,95.59
2023-12-14T14:12:23.536Z,95.52
2023-12-14T14:14:51.002Z,96.31
2023-12-14T14:17:18.623Z,96.69
2023-12-14T14:19:45.755Z,95.96
2023-12-14T14:22:12.770Z,96.33
2023-12-14T14:24:39.711Z,95.22
2023-12-14T14:27:07.005Z,96.22
2023-12-14T14:29:34.058Z,96.45
2023-12-14T14:32:01.120Z,95.32
2023-12-14T14:34:28.380Z,95.41
2023-12-14T14:36:55.358Z,96.29
2023-12-14T14:39:22.432Z,96.11
2023-12-14T14:41:49.393Z,96.87
2023-12-14T14:44:16.710Z,92.56
2023-12-14T14:46:44.655Z,94.63
2023-12-14T14:49:12.119Z,92.08
2023-12-14T14:51:40.194Z,95.97
2023-12-14T14:54:07.124Z,96.29
2023-12-14T14:56:34.171Z,97.57
2023-12-14T14:59:01.255Z,97.24
2023-12-14T15:01:28.291Z,96.86
2023-12-14T15:03:55.414Z,98.11
2023-12-14T15:06:24.329Z,97.62
2023-12-14T15:08:51.345Z,97.78
2023-12-14T15:11:18.452Z,98.60
2023-12-14T15:13:45.470Z,99.62
2023-12-14T15:16:13.060Z,99.71
2023-12-14T15:18:42.863Z,99.51
2023-12-14T15:21:15.712Z,99.44
2023-12-14T15:23:45.420Z,98.96
2023-12-14T15:26:12.634Z,97.91
2023-12-14T15:28:40.177Z,97.22
2023-12-14T15:31:08.331Z,97.96
2023-12-14T15:33:35.623Z,99.16
2023-12-14T15:36:06.443Z,98.60
2023-12-14T15:38:33.570Z,98.95
2023-12-14T15:41:00.539Z,99.24
2023-12-14T15:43:27.572Z,97.52
2023-12-14T15:45:54.585Z,96.54
2023-12-14T15:48:21.721Z,97.01
2023-12-14T15:50:48.773Z,98.48
2023-12-14T15:53:15.777Z,97.57
2023-12-14T15:55:42.860Z,97.18
2023-12-14T15:58:12.761Z,96.95
2023-12-14T16:00:40.167Z,96.64
2023-12-14T16:03:09.341Z,97.90
2023-12-14T16:05:37.187Z,97.63
2023-12-14T16:08:04.313Z,98.39
2023-12-14T16:10:32.451Z,98.13
2023-12-14T16:12:59.591Z,96.66
2023-12-14T16:15:26.817Z,95.98
2023-12-14T16:17:53.943Z,98.03
2023-12-14T16:20:24.006Z,99.24
2023-12-14T16:22:54.255Z,96.58
2023-12-14T16:25:21.382Z,99.07
2023-12-14T16:27:48.852Z,99.66
2023-12-14T16:30:17.337Z,100.00
2023-12-14T16:32:44.502Z,100.00
2023-12-14T16:35:11.939Z,100.00
2023-12-14T16:37:39.043Z,100.00
2023-12-14T16:40:06.837Z,100.00
2023-12-14T16:42:34.180Z,100.00
2023-12-14T16:45:01.289Z,100.00
2023-12-14T16:47:28.699Z,100.00
2023-12-14T16:49:55.974Z,100.00
2023-12-14T16:52:23.403Z,100.00
2023-12-14T16:54:50.388Z,100.00
2023-12-14T16:57:17.585Z,100.00
2023-12-14T16:59:45.426Z,100.00
2023-12-14T17:02:12.413Z,100.00
2023-12-14T17:04:40.926Z,100.00
2023-12-14T17:07:08.074Z,100.00
2023-12-14T17:09:34.971Z,100.00
2023-12-14T17:12:01.964Z,100.00
2023-12-14T17:14:29.111Z,100.00
2023-12-14T17:16:56.333Z,100.00
2023-12-14T17:19:23.256Z,100.00
2023-12-14T17:21:55.228Z,100.00
2023-12-14T17:24:22.453Z,100.00
2023-12-14T17:26:49.374Z,100.00
2023-12-14T17:29:16.418Z,100.00
2023-12-14T17:31:44.815Z,100.00
2023-12-14T17:34:12.106Z,100.00
2023-12-14T17:36:40.860Z,100.00
2023-12-14T17:39:07.954Z,100.00
2023-12-14T17:41:34.980Z,100.00
2023-12-14T17:44:02.088Z,100.00
2023-12-14T17:46:29.219Z,100.00
2023-12-14T17:48:57.003Z,100.00
2023-12-14T17:51:24.076Z,100.00
2023-12-14T17:53:51.118Z,100.00
2023-12-14T17:56:18.140Z,100.00
2023-12-14T17:58:46.905Z,100.00
2023-12-14T18:01:15.155Z,100.00
2023-12-14T18:03:42.386Z,100.00
2023-12-14T18:06:09.541Z,100.00
2023-12-14T18:08:36.623Z,100.00
2023-12-14T18:11:03.879Z,100.00
2023-12-14T18:13:31.072Z,100.00
2023-12-14T18:15:58.263Z,100.00
2023-12-14T18:18:25.907Z,100.00
2023-12-14T18:20:53.298Z,100.00
2023-12-14T18:23:20.433Z,100.00
2023-12-14T18:25:47.856Z,100.00
2023-12-14T18:28:17.895Z,100.00
2023-12-14T18:30:45.420Z,100.00
2023-12-14T18:33:13.029Z,100.00
2023-12-14T18:35:40.088Z,100.00
2023-12-14T18:38:07.060Z,100.00
2023-12-14T18:40:34.118Z,100.00
2023-12-14T18:43:01.156Z,100.00
2023-12-14T18:45:28.228Z,100.00
2023-12-14T18:47:55.281Z,100.00
2023-12-14T18:50:22.339Z,100.00
2023-12-14T18:52:49.441Z,100.00
2023-12-14T18:55:16.866Z,100.00
2023-12-14T18:57:46.664Z,100.00
2023-12-14T19:00:14.103Z,100.00
2023-12-14T19:02:41.284Z,100.00
2023-12-14T19:05:09.157Z,100.00
2023-12-14T19:07:36.564Z,100.00
2023-12-14T19:10:07.657Z,100.00
2023-12-14T19:12:38.118Z,100.00
2023-12-14T19:15:06.201Z,100.00
2023-12-14T19:17:33.676Z,100.00
2023-12-14T19:20:01.467Z,100.00
2023-12-14T19:22:29.194Z,100.00
2023-12-14T19:24:56.302Z,100.00
2023-12-14T19:27:23.336Z,100.00
2023-12-14T19:29:50.465Z,100.00
2023-12-14T19:32:18.171Z,100.00
2023-12-14T19:34:45.819Z,100.00
2023-12-14T19:37:13.010Z,100.00
2023-12-14T19:39:40.073Z,100.00
2023-12-14T19:42:08.169Z,100.00
2023-12-14T19:44:35.365Z,100.00
2023-12-14T19:47:02.593Z,100.00
2023-12-14T19:49:29.923Z,100.00
2023-12-14T19:51:57.769Z,100.00
2023-12-14T19:54:24.813Z,100.00
2023-12-14T19:56:51.916Z,100.00
2023-12-14T19:59:18.976Z,100.00
2023-12-14T20:01:46.415Z,100.00
2023-12-14T20:04:15.715Z,100.00
2023-12-14T20:06:44.337Z,100.00
2023-12-14T20:09:11.274Z,100.00
2023-12-14T20:11:38.191Z,100.00
2023-12-14T20:14:05.292Z,100.00
2023-12-14T20:16:32.337Z,100.00
2023-12-14T20:18:59.510Z,100.00
2023-12-14T20:21:26.632Z,100.00
2023-12-14T20:23:53.658Z,100.00
2023-12-14T20:26:26.990Z,100.00
2023-12-14T20:28:54.374Z,100.00
2023-12-14T20:31:21.610Z,100.00
2023-12-14T20:33:48.707Z,100.00
2023-12-14T20:36:16.118Z,100.00
2023-12-14T20:38:44.664Z,100.00
2023-12-14T20:41:14.600Z,100.00
2023-12-14T20:43:41.942Z,100.00
2023-12-14T20:46:08.872Z,100.00
2023-12-14T20:48:38.928Z,100.00
2023-12-14T20:51:06.586Z,100.00
2023-12-14T20:53:33.587Z,100.00
2023-12-14T20:56:00.707Z,100.00
2023-12-14T20:58:27.720Z,100.00
2023-12-14T21:00:54.766Z,100.00
2023-12-14T21:03:21.746Z,100.00
2023-12-14T21:05:50.252Z,100.00
2023-12-14T21:08:17.919Z,99.80
2023-12-14T21:10:45.249Z,95.41
2023-12-14T21:13:12.450Z,95.39
2023-12-14T21:15:39.617Z,93.93
2023-12-14T21:18:07.119Z,91.92
2023-12-14T21:20:34.278Z,92.00
2023-12-14T21:23:01.465Z,92.71
2023-12-14T21:25:39.606Z,91.56
2023-12-14T21:28:06.990Z,91.72
2023-12-14T21:30:35.451Z,91.08
2023-12-14T21:33:02.815Z,91.38
2023-12-14T21:35:30.193Z,91.23
2023-12-14T21:37:57.302Z,90.43
2023-12-14T21:40:24.443Z,89.68
2023-12-14T21:42:51.573Z,90.63
2023-12-14T21:45:18.595Z,89.46
2023-12-14T21:47:45.911Z,89.66
2023-12-14T21:50:13.352Z,89.46
2023-12-14T21:52:41.074Z,90.39
2023-12-14T21:55:08.442Z,88.20
2023-12-14T21:57:35.719Z,90.61
2023-12-14T22:00:03.085Z,90.21
2023-12-14T22:02:31.236Z,89.96
2023-12-14T22:04:58.885Z,87.44
2023-12-14T22:07:25.926Z,90.15
2023-12-14T22:09:53.473Z,89.86
2023-12-14T22:12:21.982Z,87.46
2023-12-14T22:14:49.556Z,89.44
2023-12-14T22:17:16.529Z,88.75
2023-12-14T22:19:43.498Z,87.81
2023-12-14T22:22:10.439Z,89.02
2023-12-14T22:24:37.857Z,87.29
2023-12-14T22:27:06.586Z,88.28
2023-12-14T22:29:33.655Z,86.66
2023-12-14T22:32:00.967Z,89.18
2023-12-14T22:34:28.392Z,87.20
2023-12-14T22:36:55.377Z,87.50
2023-12-14T22:39:22.302Z,88.10
2023-12-14T22:41:49.334Z,86.23
2023-12-14T22:44:16.381Z,85.62
2023-12-14T22:46:43.351Z,86.55
2023-12-14T22:49:10.608Z,86.67
2023-12-14T22:51:38.284Z,86.88
2023-12-14T22:54:05.473Z,85.64
2023-12-14T22:56:32.763Z,86.30
2023-12-14T22:59:00.305Z,86.54
2023-12-14T23:01:32.482Z,87.52
2023-12-14T23:04:00.348Z,87.34
2023-12-14T23:06:27.450Z,87.83
2023-12-14T23:08:55.238Z,87.75
2023-12-14T23:11:22.497Z,88.02
2023-12-14T23:13:49.922Z,88.07
2023-12-14T23:16:17.062Z,88.74
2023-12-14T23:18:44.169Z,89.17
2023-12-14T23:21:11.266Z,89.21
2023-12-14T23:23:38.240Z,88.75
2023-12-14T23:26:05.893Z,89.79
2023-12-14T23:28:32.980Z,89.42
2023-12-14T23:30:59.992Z,88.52
2023-12-14T23:33:27.157Z,87.91
2023-12-14T23:35:54.205Z,88.45
2023-12-14T23:38:21.349Z,88.64
2023-12-14T23:40:48.495Z,86.78
2023-12-14T23:43:15.677Z,89.50
2023-12-14T23:45:42.642Z,89.27
2023-12-14T23:48:09.941Z,89.22
2023-12-14T23:50:37.042Z,88.51
2023-12-14T23:53:03.980Z,91.22
2023-12-14T23:55:30.989Z,91.72
2023-12-14T23:57:57.981Z,90.73
